createdAt,value
2022-11-27T00:03:59.932Z,5.87
2022-11-27T00:09:06.253Z,4.77
2022-11-27T00:14:11.289Z,4.73
2022-11-27T00:19:13.732Z,4.40
2022-11-27T00:24:16.153Z,4.80
2022-11-27T00:29:18.617Z,4.80
2022-11-27T00:34:21.170Z,4.67
2022-11-27T00:39:23.595Z,4.50
2022-11-27T00:44:26.052Z,4.80
2022-11-27T00:49:28.672Z,4.83
2022-11-27T00:54:31.397Z,4.80
2022-11-27T00:59:34.002Z,4.80
2022-11-27T01:04:36.386Z,4.87
2022-11-27T01:09:38.888Z,5.30
2022-11-27T01:14:41.707Z,4.90
2022-11-27T01:19:44.273Z,4.90
2022-11-27T01:24:46.668Z,4.77
2022-11-27T01:29:49.040Z,5.37
2022-11-27T01:34:52.442Z,5.20
2022-11-27T01:39:56.775Z,4.73
2022-11-27T01:44:59.523Z,5.27
2022-11-27T01:50:13.679Z,5.07
2022-11-27T01:55:23.107Z,4.60
2022-11-27T02:00:26.036Z,4.77
2022-11-27T02:05:29.414Z,5.10
2022-11-27T02:11:12.192Z,5.10
2022-11-27T02:16:33.174Z,4.93
2022-11-27T02:21:44.731Z,4.90
2022-11-27T02:27:01.818Z,5.07
2022-11-27T02:32:16.211Z,4.80
2022-11-27T02:37:42.814Z,4.23
2022-11-27T02:42:57.957Z,4.47
2022-11-27T02:48:00.627Z,4.70
2022-11-27T02:53:07.780Z,4.63
2022-11-27T02:58:16.801Z,4.27
2022-11-27T03:03:26.137Z,4.57
2022-11-27T03:09:02.919Z,4.20
2022-11-27T03:14:08.686Z,4.13
2022-11-27T03:19:26.335Z,4.77
2022-11-27T03:24:31.385Z,4.53
2022-11-27T03:29:43.305Z,4.70
2022-11-27T03:34:47.036Z,4.30
2022-11-27T03:39:50.006Z,4.13
2022-11-27T03:45:01.638Z,3.73
2022-11-27T03:50:15.904Z,4.00
2022-11-27T03:55:27.996Z,4.87
2022-11-27T04:00:38.483Z,4.60
2022-11-27T04:05:40.972Z,4.17
2022-11-27T04:10:43.349Z,4.00
2022-11-27T04:15:45.916Z,4.37
2022-11-27T04:20:48.390Z,4.73
2022-11-27T04:25:51.081Z,4.50
2022-11-27T04:30:54.954Z,4.23
2022-11-27T04:35:57.350Z,3.30
2022-11-27T04:40:59.764Z,3.53
2022-11-27T04:46:02.556Z,4.07
2022-11-27T04:51:05.288Z,4.27
2022-11-27T04:56:07.835Z,3.47
2022-11-27T05:01:10.574Z,3.60
2022-11-27T05:06:13.073Z,4.00
2022-11-27T05:11:17.653Z,4.00
2022-11-27T05:16:20.055Z,3.60
2022-11-27T05:21:22.665Z,4.13
2022-11-27T05:26:25.034Z,5.20
2022-11-27T05:31:27.470Z,4.30
2022-11-27T05:36:31.175Z,5.00
2022-11-27T05:41:35.403Z,5.13
2022-11-27T05:46:37.841Z,5.13
2022-11-27T05:51:41.967Z,5.30
2022-11-27T05:56:46.927Z,6.10
2022-11-27T06:01:49.756Z,5.63
2022-11-27T06:06:52.439Z,5.03
2022-11-27T06:11:54.887Z,5.27
2022-11-27T06:16:57.586Z,4.93
2022-11-27T06:22:00.248Z,4.87
2022-11-27T06:27:03.142Z,4.97
2022-11-27T06:32:06.723Z,4.80
2022-11-27T06:37:13.144Z,4.67
2022-11-27T06:42:16.082Z,4.57
2022-11-27T06:47:18.502Z,4.70
2022-11-27T06:52:20.943Z,4.10
2022-11-27T06:57:23.402Z,5.10
2022-11-27T07:02:26.237Z,5.00
2022-11-27T07:07:28.938Z,4.17
2022-11-27T07:12:31.615Z,3.63
2022-11-27T07:17:34.802Z,5.13
2022-11-27T07:22:37.210Z,4.83
2022-11-27T07:27:39.550Z,4.23
2022-11-27T07:32:42.026Z,4.60
2022-11-27T07:37:44.435Z,4.33
2022-11-27T07:42:46.888Z,4.43
2022-11-27T07:47:51.313Z,4.43
2022-11-27T07:52:53.734Z,5.00
2022-11-27T07:57:56.194Z,4.47
2022-11-27T08:03:00.239Z,3.37
2022-11-27T08:08:04.628Z,2.90
2022-11-27T08:13:07.401Z,3.07
2022-11-27T08:18:09.876Z,3.60
2022-11-27T08:23:15.327Z,3.20
2022-11-27T08:28:20.633Z,3.83
2022-11-27T08:33:23.099Z,4.20
2022-11-27T08:38:25.627Z,3.63
2022-11-27T08:43:28.861Z,3.73
2022-11-27T08:48:31.754Z,3.80
2022-11-27T08:53:34.836Z,3.67
2022-11-27T08:58:37.590Z,3.83
2022-11-27T09:03:40.170Z,3.83
2022-11-27T09:08:43.886Z,4.00
2022-11-27T09:13:47.263Z,3.13
2022-11-27T09:18:51.616Z,3.30
2022-11-27T09:23:55.432Z,3.77
2022-11-27T09:29:00.195Z,3.53
2022-11-27T09:34:04.975Z,3.60
2022-11-27T09:39:07.453Z,3.50
2022-11-27T09:44:18.638Z,3.53
2022-11-27T09:49:45.752Z,2.70
2022-11-27T09:55:01.616Z,2.80
2022-11-27T10:00:19.539Z,2.60
2022-11-27T10:05:25.942Z,3.97
2022-11-27T10:10:49.550Z,5.00
2022-11-27T10:16:14.535Z,4.90
2022-11-27T10:21:24.324Z,5.33
2022-11-27T10:26:40.417Z,4.07
2022-11-27T10:31:49.537Z,3.30
2022-11-27T10:36:53.910Z,2.93
2022-11-27T10:42:04.383Z,4.73
2022-11-27T10:47:11.047Z,3.67
2022-11-27T10:52:16.611Z,5.30
2022-11-27T10:57:48.871Z,5.33
2022-11-27T11:03:04.769Z,4.80
2022-11-27T11:08:17.102Z,4.33
2022-11-27T11:13:42.847Z,4.70
2022-11-27T11:18:46.744Z,4.60
2022-11-27T11:24:01.705Z,3.80
2022-11-27T11:29:25.554Z,2.97
2022-11-27T11:34:30.251Z,2.90
2022-11-27T11:39:44.011Z,3.03
2022-11-27T11:45:06.527Z,3.00
2022-11-27T11:50:13.526Z,3.40
2022-11-27T11:55:23.263Z,3.40
2022-11-27T12:00:58.594Z,4.20
2022-11-27T12:06:22.959Z,4.40
2022-11-27T12:11:35.300Z,5.13
2022-11-27T12:16:52.921Z,4.70
2022-11-27T12:22:07.403Z,4.53
2022-11-27T12:27:24.686Z,4.20
2022-11-27T12:33:04.245Z,3.33
2022-11-27T12:38:48.791Z,2.60
2022-11-27T12:43:56.147Z,2.40
2022-11-27T12:49:35.117Z,2.23
2022-11-27T12:54:58.902Z,2.43
2022-11-27T13:00:24.161Z,2.00
2022-11-27T13:05:32.615Z,1.93
2022-11-27T13:10:43.428Z,2.40
2022-11-27T13:15:56.251Z,2.37
2022-11-27T13:21:02.803Z,2.20
2022-11-27T13:26:23.238Z,2.70
2022-11-27T13:31:32.618Z,2.33
2022-11-27T13:36:41.655Z,2.37
2022-11-27T13:41:44.361Z,2.20
2022-11-27T13:46:54.900Z,2.40
2022-11-27T13:52:19.144Z,3.00
2022-11-27T13:57:22.349Z,2.80
2022-11-27T14:02:26.074Z,2.70
2022-11-27T14:07:45.352Z,2.70
2022-11-27T14:13:07.641Z,3.00
2022-11-27T14:18:22.767Z,2.97
2022-11-27T14:23:38.107Z,3.40
2022-11-27T14:28:48.414Z,2.77
2022-11-27T14:34:14.154Z,3.43
2022-11-27T14:39:36.081Z,3.40
2022-11-27T14:44:41.172Z,3.30
2022-11-27T14:49:44.262Z,3.83
2022-11-27T14:54:47.171Z,4.60
2022-11-27T15:00:00.606Z,3.33
2022-11-27T15:05:06.212Z,3.80
2022-11-27T15:10:22.309Z,3.60
2022-11-27T15:15:27.593Z,3.93
2022-11-27T15:20:45.054Z,3.87
2022-11-27T15:26:14.954Z,3.53
2022-11-27T15:31:37.605Z,3.90
2022-11-27T15:36:44.311Z,3.43
2022-11-27T15:41:57.598Z,3.87
2022-11-27T15:47:02.394Z,3.97
2022-11-27T15:52:05.219Z,3.97
2022-11-27T15:57:07.692Z,4.10
2022-11-27T16:02:17.260Z,3.90
2022-11-27T16:07:20.486Z,4.30
2022-11-27T16:12:23.068Z,3.83
2022-11-27T16:17:25.462Z,4.37
2022-11-27T16:22:28.066Z,4.37
2022-11-27T16:27:31.009Z,3.90
2022-11-27T16:32:36.975Z,3.80
2022-11-27T16:37:41.061Z,4.13
2022-11-27T16:42:44.011Z,3.70
2022-11-27T16:47:46.958Z,3.90
2022-11-27T16:52:54.464Z,3.33
2022-11-27T16:57:59.228Z,3.40
2022-11-27T17:03:03.807Z,3.27
2022-11-27T17:08:06.821Z,3.37
2022-11-27T17:13:09.278Z,3.50
2022-11-27T17:18:12.095Z,3.97
2022-11-27T17:23:14.459Z,3.97
2022-11-27T17:28:16.911Z,3.93
2022-11-27T17:33:19.376Z,3.87
2022-11-27T17:38:22.163Z,4.00
2022-11-27T17:43:25.664Z,3.73
2022-11-27T17:48:31.662Z,3.97
2022-11-27T17:53:35.353Z,3.97
2022-11-27T17:58:38.891Z,4.30
2022-11-27T18:03:42.613Z,3.33
2022-11-27T18:08:46.764Z,4.40
2022-11-27T18:13:51.155Z,3.83
2022-11-27T18:18:54.286Z,3.83
2022-11-27T18:24:22.099Z,3.90
2022-11-27T18:29:20.237Z,4.17
2022-11-27T18:34:22.690Z,3.90
2022-11-27T18:39:25.533Z,3.73
2022-11-27T18:44:28.095Z,4.23
2022-11-27T18:49:30.748Z,4.30
2022-11-27T18:54:34.289Z,4.50
2022-11-27T18:59:37.390Z,4.47
2022-11-27T19:04:43.326Z,3.73
2022-11-27T19:09:45.904Z,4.23
2022-11-27T19:14:48.818Z,4.47
2022-11-27T19:19:55.088Z,4.20
2022-11-27T19:24:57.914Z,4.13
2022-11-27T19:30:00.483Z,4.20
2022-11-27T19:35:07.191Z,4.33
2022-11-27T19:40:11.197Z,4.40
2022-11-27T19:45:13.620Z,3.90
2022-11-27T19:50:16.409Z,3.80
2022-11-27T19:55:19.300Z,3.90
2022-11-27T20:00:22.165Z,4.20
2022-11-27T20:05:24.650Z,4.10
2022-11-27T20:10:27.400Z,4.00
2022-11-27T20:15:30.510Z,4.40
2022-11-27T20:20:34.288Z,4.43
2022-11-27T20:25:40.078Z,4.20
2022-11-27T20:30:44.633Z,4.80
2022-11-27T20:35:47.105Z,4.23
2022-11-27T20:40:50.802Z,4.93
2022-11-27T20:45:55.046Z,4.63
2022-11-27T20:51:04.961Z,4.53
2022-11-27T20:56:09.660Z,5.10
2022-11-27T21:01:24.678Z,5.20
2022-11-27T21:06:32.923Z,5.33
2022-11-27T21:11:37.757Z,4.90
2022-11-27T21:16:43.860Z,4.80
2022-11-27T21:21:48.335Z,4.80
2022-11-27T21:26:51.110Z,4.87
2022-11-27T21:31:54.042Z,5.60
2022-11-27T21:36:56.737Z,4.60
2022-11-27T21:41:59.300Z,4.93
2022-11-27T21:47:02.573Z,4.73
2022-11-27T21:52:06.588Z,4.90
2022-11-27T21:57:09.148Z,4.80
2022-11-27T22:02:14.767Z,5.40
2022-11-27T22:07:17.360Z,5.33
2022-11-27T22:12:19.847Z,5.63
2022-11-27T22:17:24.559Z,4.93
2022-11-27T22:22:28.967Z,5.63
2022-11-27T22:27:31.519Z,5.03
2022-11-27T22:32:34.631Z,5.50
2022-11-27T22:37:37.198Z,4.30
2022-11-27T22:42:39.800Z,5.00
2022-11-27T22:47:42.285Z,5.33
2022-11-27T22:52:44.873Z,5.37
2022-11-27T22:57:47.352Z,5.50
2022-11-27T23:02:49.880Z,4.97
2022-11-27T23:07:53.142Z,5.20
2022-11-27T23:12:55.864Z,4.80
2022-11-27T23:17:58.855Z,5.00
2022-11-27T23:23:01.510Z,5.07
2022-11-27T23:28:05.018Z,5.60
2022-11-27T23:33:07.588Z,5.13
2022-11-27T23:38:09.986Z,5.10
2022-11-27T23:43:12.534Z,5.13
2022-11-27T23:48:15.262Z,4.77
2022-11-27T23:53:17.655Z,4.77
2022-11-27T23:58:20.193Z,4.60
